KDED

Deland Municipal-Sidney H Taylor Field Airport

Deland, Florida, USA
METAR KDED 170555Z AUTO 32003KT 10SM CLR 11/10 A3027 RMK AO2
Observed Flight Rules
Dec-17 @ 05:55 UTC (26 minutes ago) Visual Flight Rules
Wind Visibility Clouds
320° at 3 knots 10 miles
  • Clear skies
Temperatures Readings
Current 11°C / 52°F
Dewpoint 10°C / 50°F
Humidity 94%
Altimeter 30.27" Hg
Pressure 1025 hPa
Elevation 24
METAR KDED 170555Z AUTO 32003KT 10SM CLR 11/10 A3027 RMK AO2
Observed Flight Rules
Dec-17 @ 05:55 UTC
(26 minutes ago)
VFR
Wind Visibility
320° at 3 knots 10 miles
Clouds
  • Clear skies
Temperature Dewpoint
11°C / 52°F 10°C / 50°F
Humidity Altimeter Pressure
94% 30.27" Hg 1025 hPa